sensor_id;sensor_type;location;lat;lon;timestamp;temperature;humidity
46758;DHT22;32509;47.750;-3.396;2023-08-24T00:00:41;22.40;99.90
46758;DHT22;32509;47.750;-3.396;2023-08-24T00:03:08;22.40;99.90
46758;DHT22;32509;47.750;-3.396;2023-08-24T00:05:34;22.40;99.90
46758;DHT22;32509;47.750;-3.396;2023-08-24T00:08:07;22.40;99.90
46758;DHT22;32509;47.750;-3.396;2023-08-24T00:10:34;22.40;99.90
46758;DHT22;32509;47.750;-3.396;2023-08-24T00:13:00;22.40;99.90
46758;DHT22;32509;47.750;-3.396;2023-08-24T00:15:26;22.40;99.90
46758;DHT22;32509;47.750;-3.396;2023-08-24T00:17:52;22.30;99.90
46758;DHT22;32509;47.750;-3.396;2023-08-24T00:20:18;22.30;99.90
46758;DHT22;32509;47.750;-3.396;2023-08-24T00:22:46;22.30;99.90
46758;DHT22;32509;47.750;-3.396;2023-08-24T00:25:12;22.30;99.90
46758;DHT22;32509;47.750;-3.396;2023-08-24T00:27:38;22.40;99.90
46758;DHT22;32509;47.750;-3.396;2023-08-24T00:30:05;22.30;99.90
46758;DHT22;32509;47.750;-3.396;2023-08-24T00:32:35;22.30;99.90
46758;DHT22;32509;47.750;-3.396;2023-08-24T00:35:02;22.30;99.90
46758;DHT22;32509;47.750;-3.396;2023-08-24T00:37:28;22.30;99.90
46758;DHT22;32509;47.750;-3.396;2023-08-24T00:39:54;22.30;99.90
46758;DHT22;32509;47.750;-3.396;2023-08-24T00:42:21;22.30;99.90
46758;DHT22;32509;47.750;-3.396;2023-08-24T00:44:48;22.30;99.90
46758;DHT22;32509;47.750;-3.396;2023-08-24T00:47:16;22.30;99.90
46758;DHT22;32509;47.750;-3.396;2023-08-24T00:49:42;22.20;99.90
46758;DHT22;32509;47.750;-3.396;2023-08-24T00:52:08;22.30;99.90
46758;DHT22;32509;47.750;-3.396;2023-08-24T00:54:36;22.20;99.90
46758;DHT22;32509;47.750;-3.396;2023-08-24T00:57:02;22.20;99.90
46758;DHT22;32509;47.750;-3.396;2023-08-24T00:59:28;22.30;99.90
46758;DHT22;32509;47.750;-3.396;2023-08-24T01:01:55;22.20;99.90
46758;DHT22;32509;47.750;-3.396;2023-08-24T01:04:22;22.20;99.90
46758;DHT22;32509;47.750;-3.396;2023-08-24T01:06:48;22.20;99.90
46758;DHT22;32509;47.750;-3.396;2023-08-24T01:09:14;22.20;99.90
46758;DHT22;32509;47.750;-3.396;2023-08-24T01:12:00;22.20;99.90
46758;DHT22;32509;47.750;-3.396;2023-08-24T01:17:22;22.20;99.90
46758;DHT22;32509;47.750;-3.396;2023-08-24T01:19:48;22.20;99.90
46758;DHT22;32509;47.750;-3.396;2023-08-24T01:27:44;22.10;99.90
46758;DHT22;32509;47.750;-3.396;2023-08-24T01:30:11;22.10;99.90
46758;DHT22;32509;47.750;-3.396;2023-08-24T01:32:37;22.10;99.90
46758;DHT22;32509;47.750;-3.396;2023-08-24T01:35:06;22.10;99.90
46758;DHT22;32509;47.750;-3.396;2023-08-24T01:37:35;22.10;99.90
46758;DHT22;32509;47.750;-3.396;2023-08-24T01:40:06;22.10;99.90
46758;DHT22;32509;47.750;-3.396;2023-08-24T01:42:42;22.20;99.90
46758;DHT22;32509;47.750;-3.396;2023-08-24T01:45:10;22.10;99.90
46758;DHT22;32509;47.750;-3.396;2023-08-24T01:47:38;22.10;99.90
46758;DHT22;32509;47.750;-3.396;2023-08-24T01:50:07;22.10;99.90
46758;DHT22;32509;47.750;-3.396;2023-08-24T01:52:34;22.10;99.90
46758;DHT22;32509;47.750;-3.396;2023-08-24T01:55:00;22.10;99.90
46758;DHT22;32509;47.750;-3.396;2023-08-24T01:57:25;22.10;99.90
46758;DHT22;32509;47.750;-3.396;2023-08-24T01:59:51;22.10;99.90
46758;DHT22;32509;47.750;-3.396;2023-08-24T02:02:17;22.20;99.90
46758;DHT22;32509;47.750;-3.396;2023-08-24T02:04:43;22.10;99.90
46758;DHT22;32509;47.750;-3.396;2023-08-24T02:07:08;22.10;99.90
46758;DHT22;32509;47.750;-3.396;2023-08-24T02:09:34;22.10;99.90
46758;DHT22;32509;47.750;-3.396;2023-08-24T02:12:00;22.10;99.90
46758;DHT22;32509;47.750;-3.396;2023-08-24T02:14:26;22.10;99.90
46758;DHT22;32509;47.750;-3.396;2023-08-24T02:16:51;22.10;99.90
46758;DHT22;32509;47.750;-3.396;2023-08-24T02:19:17;22.10;99.90
46758;DHT22;32509;47.750;-3.396;2023-08-24T02:21:43;22.10;99.90
46758;DHT22;32509;47.750;-3.396;2023-08-24T02:24:08;22.10;99.90
46758;DHT22;32509;47.750;-3.396;2023-08-24T02:26:34;22.10;99.90
46758;DHT22;32509;47.750;-3.396;2023-08-24T02:29:00;22.10;99.90
46758;DHT22;32509;47.750;-3.396;2023-08-24T02:31:26;22.10;99.90
46758;DHT22;32509;47.750;-3.396;2023-08-24T02:33:51;22.00;99.90
46758;DHT22;32509;47.750;-3.396;2023-08-24T02:36:17;22.00;99.90
46758;DHT22;32509;47.750;-3.396;2023-08-24T02:38:43;22.00;99.90
46758;DHT22;32509;47.750;-3.396;2023-08-24T02:41:09;22.10;99.90
46758;DHT22;32509;47.750;-3.396;2023-08-24T02:43:36;22.00;99.90
46758;DHT22;32509;47.750;-3.396;2023-08-24T02:46:04;22.10;99.90
46758;DHT22;32509;47.750;-3.396;2023-08-24T02:48:30;22.00;99.90
46758;DHT22;32509;47.750;-3.396;2023-08-24T02:51:00;22.00;99.90
46758;DHT22;32509;47.750;-3.396;2023-08-24T02:53:26;22.00;99.90
46758;DHT22;32509;47.750;-3.396;2023-08-24T02:55:53;22.00;99.90
46758;DHT22;32509;47.750;-3.396;2023-08-24T02:58:19;22.00;99.90
46758;DHT22;32509;47.750;-3.396;2023-08-24T03:00:45;22.00;99.90
46758;DHT22;32509;47.750;-3.396;2023-08-24T03:03:13;22.00;99.90
46758;DHT22;32509;47.750;-3.396;2023-08-24T03:05:39;22.00;99.90
46758;DHT22;32509;47.750;-3.396;2023-08-24T03:08:06;22.00;99.90
46758;DHT22;32509;47.750;-3.396;2023-08-24T03:10:35;22.00;99.90
46758;DHT22;32509;47.750;-3.396;2023-08-24T03:13:01;22.00;99.90
46758;DHT22;32509;47.750;-3.396;2023-08-24T03:15:26;22.00;99.90
46758;DHT22;32509;47.750;-3.396;2023-08-24T03:17:52;22.00;99.90
46758;DHT22;32509;47.750;-3.396;2023-08-24T03:20:18;21.90;99.90
46758;DHT22;32509;47.750;-3.396;2023-08-24T03:22:44;21.90;99.90
46758;DHT22;32509;47.750;-3.396;2023-08-24T03:25:10;21.90;99.90
46758;DHT22;32509;47.750;-3.396;2023-08-24T03:27:38;21.90;99.90
46758;DHT22;32509;47.750;-3.396;2023-08-24T03:30:04;21.90;99.90
46758;DHT22;32509;47.750;-3.396;2023-08-24T03:32:30;21.90;99.90
46758;DHT22;32509;47.750;-3.396;2023-08-24T03:34:59;21.90;99.90
46758;DHT22;32509;47.750;-3.396;2023-08-24T03:37:28;21.90;99.90
46758;DHT22;32509;47.750;-3.396;2023-08-24T03:39:54;21.90;99.90
46758;DHT22;32509;47.750;-3.396;2023-08-24T03:42:20;21.80;99.90
46758;DHT22;32509;47.750;-3.396;2023-08-24T03:44:46;21.80;99.90
46758;DHT22;32509;47.750;-3.396;2023-08-24T03:47:11;21.80;99.90
46758;DHT22;32509;47.750;-3.396;2023-08-24T03:49:37;21.80;99.90
46758;DHT22;32509;47.750;-3.396;2023-08-24T03:52:04;21.80;99.90
46758;DHT22;32509;47.750;-3.396;2023-08-24T03:54:30;21.80;99.90
46758;DHT22;32509;47.750;-3.396;2023-08-24T03:56:55;21.80;99.90
46758;DHT22;32509;47.750;-3.396;2023-08-24T03:59:21;21.80;99.90
46758;DHT22;32509;47.750;-3.396;2023-08-24T04:01:47;21.80;99.90
46758;DHT22;32509;47.750;-3.396;2023-08-24T04:04:13;21.80;99.90
46758;DHT22;32509;47.750;-3.396;2023-08-24T04:06:39;21.80;99.90
46758;DHT22;32509;47.750;-3.396;2023-08-24T04:09:06;21.80;99.90
46758;DHT22;32509;47.750;-3.396;2023-08-24T04:11:32;21.80;99.90
46758;DHT22;32509;47.750;-3.396;2023-08-24T04:13:58;21.80;99.90
46758;DHT22;32509;47.750;-3.396;2023-08-24T04:16:24;21.80;99.90
46758;DHT22;32509;47.750;-3.396;2023-08-24T04:18:49;21.80;99.90
46758;DHT22;32509;47.750;-3.396;2023-08-24T04:21:15;21.80;99.90
46758;DHT22;32509;47.750;-3.396;2023-08-24T04:23:41;21.80;99.90
46758;DHT22;32509;47.750;-3.396;2023-08-24T04:26:11;21.80;99.90
46758;DHT22;32509;47.750;-3.396;2023-08-24T04:28:37;21.80;99.90
46758;DHT22;32509;47.750;-3.396;2023-08-24T04:31:03;21.80;99.90
46758;DHT22;32509;47.750;-3.396;2023-08-24T04:33:29;21.70;99.90
46758;DHT22;32509;47.750;-3.396;2023-08-24T04:35:54;21.80;99.90
46758;DHT22;32509;47.750;-3.396;2023-08-24T04:38:20;21.70;99.90
46758;DHT22;32509;47.750;-3.396;2023-08-24T04:43:17;21.70;99.90
46758;DHT22;32509;47.750;-3.396;2023-08-24T04:45:46;21.70;99.90
46758;DHT22;32509;47.750;-3.396;2023-08-24T04:48:12;21.70;99.90
46758;DHT22;32509;47.750;-3.396;2023-08-24T04:50:38;21.70;99.90
46758;DHT22;32509;47.750;-3.396;2023-08-24T04:53:03;21.70;99.90
46758;DHT22;32509;47.750;-3.396;2023-08-24T04:55:29;21.70;99.90
46758;DHT22;32509;47.750;-3.396;2023-08-24T04:57:55;21.70;99.90
46758;DHT22;32509;47.750;-3.396;2023-08-24T05:00:21;21.70;99.90
46758;DHT22;32509;47.750;-3.396;2023-08-24T05:02:46;21.70;99.90
46758;DHT22;32509;47.750;-3.396;2023-08-24T05:05:12;21.70;99.90
46758;DHT22;32509;47.750;-3.396;2023-08-24T05:07:41;21.70;99.90
46758;DHT22;32509;47.750;-3.396;2023-08-24T05:10:07;21.70;99.90
46758;DHT22;32509;47.750;-3.396;2023-08-24T05:12:33;21.70;99.90
46758;DHT22;32509;47.750;-3.396;2023-08-24T05:15:05;21.70;99.90
46758;DHT22;32509;47.750;-3.396;2023-08-24T05:17:31;21.70;99.90
46758;DHT22;32509;47.750;-3.396;2023-08-24T05:19:58;21.70;99.90
46758;DHT22;32509;47.750;-3.396;2023-08-24T05:22:24;21.70;99.90
46758;DHT22;32509;47.750;-3.396;2023-08-24T05:24:50;21.70;99.90
46758;DHT22;32509;47.750;-3.396;2023-08-24T05:27:15;21.70;99.90
46758;DHT22;32509;47.750;-3.396;2023-08-24T05:29:42;21.70;99.90
46758;DHT22;32509;47.750;-3.396;2023-08-24T05:32:08;21.70;99.90
46758;DHT22;32509;47.750;-3.396;2023-08-24T05:34:33;21.70;99.90
46758;DHT22;32509;47.750;-3.396;2023-08-24T05:36:59;21.70;99.90
46758;DHT22;32509;47.750;-3.396;2023-08-24T05:39:25;21.70;99.90
46758;DHT22;32509;47.750;-3.396;2023-08-24T05:41:51;21.70;99.90
46758;DHT22;32509;47.750;-3.396;2023-08-24T05:44:18;21.70;99.90
46758;DHT22;32509;47.750;-3.396;2023-08-24T05:46:45;21.70;99.90
46758;DHT22;32509;47.750;-3.396;2023-08-24T05:49:11;21.60;99.90
46758;DHT22;32509;47.750;-3.396;2023-08-24T05:51:37;21.60;99.90
46758;DHT22;32509;47.750;-3.396;2023-08-24T05:54:03;21.60;99.90
46758;DHT22;32509;47.750;-3.396;2023-08-24T05:56:29;21.60;99.90
46758;DHT22;32509;47.750;-3.396;2023-08-24T05:58:56;21.60;99.90
46758;DHT22;32509;47.750;-3.396;2023-08-24T06:01:22;21.60;99.90
46758;DHT22;32509;47.750;-3.396;2023-08-24T06:03:49;21.60;99.90
46758;DHT22;32509;47.750;-3.396;2023-08-24T06:06:15;21.60;99.90
46758;DHT22;32509;47.750;-3.396;2023-08-24T06:08:41;21.60;99.90
46758;DHT22;32509;47.750;-3.396;2023-08-24T06:11:07;21.60;99.90
46758;DHT22;32509;47.750;-3.396;2023-08-24T06:13:33;21.60;99.90
46758;DHT22;32509;47.750;-3.396;2023-08-24T06:15:59;21.60;99.90
46758;DHT22;32509;47.750;-3.396;2023-08-24T06:18:25;21.60;99.90
46758;DHT22;32509;47.750;-3.396;2023-08-24T06:20:50;21.60;99.90
46758;DHT22;32509;47.750;-3.396;2023-08-24T06:23:17;21.60;99.90
46758;DHT22;32509;47.750;-3.396;2023-08-24T06:25:43;21.60;99.90
46758;DHT22;32509;47.750;-3.396;2023-08-24T06:28:10;21.60;99.90
46758;DHT22;32509;47.750;-3.396;2023-08-24T06:30:40;21.60;99.90
46758;DHT22;32509;47.750;-3.396;2023-08-24T06:33:07;21.70;99.90
46758;DHT22;32509;47.750;-3.396;2023-08-24T06:35:37;21.60;99.90
46758;DHT22;32509;47.750;-3.396;2023-08-24T06:38:03;21.70;99.90
46758;DHT22;32509;47.750;-3.396;2023-08-24T06:40:29;21.60;99.90
46758;DHT22;32509;47.750;-3.396;2023-08-24T06:42:56;21.70;99.90
46758;DHT22;32509;47.750;-3.396;2023-08-24T06:45:22;21.70;99.90
46758;DHT22;32509;47.750;-3.396;2023-08-24T06:47:48;21.70;99.90
46758;DHT22;32509;47.750;-3.396;2023-08-24T06:50:14;21.70;99.90
46758;DHT22;32509;47.750;-3.396;2023-08-24T06:52:41;21.70;99.90
46758;DHT22;32509;47.750;-3.396;2023-08-24T06:55:10;21.70;99.90
46758;DHT22;32509;47.750;-3.396;2023-08-24T06:57:37;21.70;99.90
46758;DHT22;32509;47.750;-3.396;2023-08-24T07:00:03;21.70;99.90
46758;DHT22;32509;47.750;-3.396;2023-08-24T07:02:36;21.70;99.90
46758;DHT22;32509;47.750;-3.396;2023-08-24T07:05:03;21.70;99.90
46758;DHT22;32509;47.750;-3.396;2023-08-24T07:07:34;21.70;99.90
46758;DHT22;32509;47.750;-3.396;2023-08-24T07:10:00;21.70;99.90
46758;DHT22;32509;47.750;-3.396;2023-08-24T07:12:28;21.70;99.90
46758;DHT22;32509;47.750;-3.396;2023-08-24T07:14:55;21.70;99.90
46758;DHT22;32509;47.750;-3.396;2023-08-24T07:17:21;21.70;99.90
46758;DHT22;32509;47.750;-3.396;2023-08-24T07:19:46;21.70;99.90
46758;DHT22;32509;47.750;-3.396;2023-08-24T07:22:12;21.70;99.90
46758;DHT22;32509;47.750;-3.396;2023-08-24T07:24:39;21.70;99.90
46758;DHT22;32509;47.750;-3.396;2023-08-24T07:27:05;21.80;99.90
46758;DHT22;32509;47.750;-3.396;2023-08-24T07:29:31;21.80;99.90
46758;DHT22;32509;47.750;-3.396;2023-08-24T07:31:57;21.80;99.90
46758;DHT22;32509;47.750;-3.396;2023-08-24T07:34:23;21.80;99.90
46758;DHT22;32509;47.750;-3.396;2023-08-24T07:36:49;21.80;99.90
46758;DHT22;32509;47.750;-3.396;2023-08-24T07:39:15;21.80;99.90
46758;DHT22;32509;47.750;-3.396;2023-08-24T07:41:41;21.80;99.90
46758;DHT22;32509;47.750;-3.396;2023-08-24T07:44:07;21.80;99.90
46758;DHT22;32509;47.750;-3.396;2023-08-24T07:46:33;21.80;99.90
46758;DHT22;32509;47.750;-3.396;2023-08-24T07:48:59;21.80;99.90
46758;DHT22;32509;47.750;-3.396;2023-08-24T07:51:25;21.80;99.90
46758;DHT22;32509;47.750;-3.396;2023-08-24T07:53:51;21.80;99.90
46758;DHT22;32509;47.750;-3.396;2023-08-24T07:56:18;21.80;99.90
46758;DHT22;32509;47.750;-3.396;2023-08-24T07:58:44;21.80;99.90
46758;DHT22;32509;47.750;-3.396;2023-08-24T08:01:11;21.80;99.90
46758;DHT22;32509;47.750;-3.396;2023-08-24T08:03:36;21.80;99.90
46758;DHT22;32509;47.750;-3.396;2023-08-24T08:06:02;21.80;99.90
46758;DHT22;32509;47.750;-3.396;2023-08-24T08:08:29;21.80;99.90
46758;DHT22;32509;47.750;-3.396;2023-08-24T08:11:02;21.80;99.90
46758;DHT22;32509;47.750;-3.396;2023-08-24T08:13:28;21.90;99.90
46758;DHT22;32509;47.750;-3.396;2023-08-24T08:16:01;21.90;99.90
46758;DHT22;32509;47.750;-3.396;2023-08-24T08:18:28;21.90;99.90
46758;DHT22;32509;47.750;-3.396;2023-08-24T08:20:54;21.80;99.90
46758;DHT22;32509;47.750;-3.396;2023-08-24T08:23:20;21.90;99.90
46758;DHT22;32509;47.750;-3.396;2023-08-24T08:25:46;21.90;99.90
46758;DHT22;32509;47.750;-3.396;2023-08-24T08:28:12;21.90;99.90
46758;DHT22;32509;47.750;-3.396;2023-08-24T08:30:39;21.90;99.90
46758;DHT22;32509;47.750;-3.396;2023-08-24T08:33:05;21.90;99.90
46758;DHT22;32509;47.750;-3.396;2023-08-24T08:35:30;21.90;99.90
46758;DHT22;32509;47.750;-3.396;2023-08-24T08:37:56;21.90;99.90
46758;DHT22;32509;47.750;-3.396;2023-08-24T08:40:25;21.90;99.90
46758;DHT22;32509;47.750;-3.396;2023-08-24T08:42:59;21.90;99.90
46758;DHT22;32509;47.750;-3.396;2023-08-24T08:45:28;21.90;99.90
46758;DHT22;32509;47.750;-3.396;2023-08-24T08:48:01;21.90;99.90
46758;DHT22;32509;47.750;-3.396;2023-08-24T08:50:29;21.90;99.90
46758;DHT22;32509;47.750;-3.396;2023-08-24T08:52:57;21.90;99.90
46758;DHT22;32509;47.750;-3.396;2023-08-24T08:55:25;21.90;99.90
46758;DHT22;32509;47.750;-3.396;2023-08-24T08:57:53;21.90;99.90
46758;DHT22;32509;47.750;-3.396;2023-08-24T09:00:24;21.90;99.90
46758;DHT22;32509;47.750;-3.396;2023-08-24T09:02:51;21.90;99.90
46758;DHT22;32509;47.750;-3.396;2023-08-24T09:05:18;21.90;99.90
46758;DHT22;32509;47.750;-3.396;2023-08-24T09:07:47;21.90;99.90
46758;DHT22;32509;47.750;-3.396;2023-08-24T09:10:13;21.90;99.90
46758;DHT22;32509;47.750;-3.396;2023-08-24T09:12:39;22.00;99.90
46758;DHT22;32509;47.750;-3.396;2023-08-24T09:15:06;22.00;99.90
46758;DHT22;32509;47.750;-3.396;2023-08-24T09:17:32;22.00;99.90
46758;DHT22;32509;47.750;-3.396;2023-08-24T09:20:07;22.00;99.90
46758;DHT22;32509;47.750;-3.396;2023-08-24T09:22:39;22.00;99.90
46758;DHT22;32509;47.750;-3.396;2023-08-24T09:25:09;22.10;99.90
46758;DHT22;32509;47.750;-3.396;2023-08-24T09:27:35;22.10;99.90
46758;DHT22;32509;47.750;-3.396;2023-08-24T09:30:00;22.10;99.90
46758;DHT22;32509;47.750;-3.396;2023-08-24T09:32:30;22.20;99.90
46758;DHT22;32509;47.750;-3.396;2023-08-24T09:35:06;22.20;99.90
46758;DHT22;32509;47.750;-3.396;2023-08-24T09:37:34;22.20;99.90
46758;DHT22;32509;47.750;-3.396;2023-08-24T09:40:07;22.20;99.90
46758;DHT22;32509;47.750;-3.396;2023-08-24T09:42:40;22.20;99.90
46758;DHT22;32509;47.750;-3.396;2023-08-24T09:45:13;22.20;99.90
46758;DHT22;32509;47.750;-3.396;2023-08-24T09:47:44;22.20;99.90
46758;DHT22;32509;47.750;-3.396;2023-08-24T09:50:10;22.30;99.90
46758;DHT22;32509;47.750;-3.396;2023-08-24T09:52:37;22.30;99.90
46758;DHT22;32509;47.750;-3.396;2023-08-24T09:55:05;22.30;99.90
46758;DHT22;32509;47.750;-3.396;2023-08-24T09:57:38;22.40;99.90
46758;DHT22;32509;47.750;-3.396;2023-08-24T10:00:07;22.40;99.90
46758;DHT22;32509;47.750;-3.396;2023-08-24T10:02:50;22.50;99.90
46758;DHT22;32509;47.750;-3.396;2023-08-24T10:05:25;22.50;99.90
46758;DHT22;32509;47.750;-3.396;2023-08-24T10:07:56;22.50;99.90
46758;DHT22;32509;47.750;-3.396;2023-08-24T10:10:26;22.50;99.90
46758;DHT22;32509;47.750;-3.396;2023-08-24T10:12:57;22.50;99.90
46758;DHT22;32509;47.750;-3.396;2023-08-24T10:15:24;22.60;99.90
46758;DHT22;32509;47.750;-3.396;2023-08-24T10:17:52;22.60;99.90
46758;DHT22;32509;47.750;-3.396;2023-08-24T10:20:22;22.70;99.90
46758;DHT22;32509;47.750;-3.396;2023-08-24T10:22:49;22.80;99.90
46758;DHT22;32509;47.750;-3.396;2023-08-24T10:25:17;22.80;99.90
46758;DHT22;32509;47.750;-3.396;2023-08-24T10:27:46;22.90;99.90
46758;DHT22;32509;47.750;-3.396;2023-08-24T10:30:16;22.90;99.90
46758;DHT22;32509;47.750;-3.396;2023-08-24T10:32:44;23.00;99.90
46758;DHT22;32509;47.750;-3.396;2023-08-24T10:35:11;23.00;99.90
46758;DHT22;32509;47.750;-3.396;2023-08-24T10:37:41;23.10;99.90
46758;DHT22;32509;47.750;-3.396;2023-08-24T10:40:11;23.20;99.90
46758;DHT22;32509;47.750;-3.396;2023-08-24T10:42:44;23.20;99.90
46758;DHT22;32509;47.750;-3.396;2023-08-24T10:45:13;23.20;99.90
46758;DHT22;32509;47.750;-3.396;2023-08-24T10:47:46;23.20;99.90
46758;DHT22;32509;47.750;-3.396;2023-08-24T10:50:14;23.20;99.90
46758;DHT22;32509;47.750;-3.396;2023-08-24T10:52:43;23.30;99.90
46758;DHT22;32509;47.750;-3.396;2023-08-24T10:55:27;23.30;99.90
46758;DHT22;32509;47.750;-3.396;2023-08-24T10:58:00;23.40;99.90
46758;DHT22;32509;47.750;-3.396;2023-08-24T11:00:27;23.40;99.90
46758;DHT22;32509;47.750;-3.396;2023-08-24T11:02:53;23.40;99.90
46758;DHT22;32509;47.750;-3.396;2023-08-24T11:05:28;23.40;99.90
46758;DHT22;32509;47.750;-3.396;2023-08-24T11:08:01;23.50;99.90
46758;DHT22;32509;47.750;-3.396;2023-08-24T11:13:15;23.60;99.90
46758;DHT22;32509;47.750;-3.396;2023-08-24T11:15:43;23.60;99.90
46758;DHT22;32509;47.750;-3.396;2023-08-24T11:20:52;23.80;99.90
46758;DHT22;32509;47.750;-3.396;2023-08-24T11:23:19;23.80;99.90
46758;DHT22;32509;47.750;-3.396;2023-08-24T11:25:47;23.80;99.90
46758;DHT22;32509;47.750;-3.396;2023-08-24T11:28:18;23.80;99.90
46758;DHT22;32509;47.750;-3.396;2023-08-24T11:30:45;23.70;99.90
46758;DHT22;32509;47.750;-3.396;2023-08-24T11:33:11;23.60;99.90
46758;DHT22;32509;47.750;-3.396;2023-08-24T11:35:43;23.50;99.90
46758;DHT22;32509;47.750;-3.396;2023-08-24T11:38:09;23.50;99.90
46758;DHT22;32509;47.750;-3.396;2023-08-24T11:40:35;23.50;99.90
46758;DHT22;32509;47.750;-3.396;2023-08-24T11:43:01;23.60;99.90
46758;DHT22;32509;47.750;-3.396;2023-08-24T11:45:34;23.70;99.90
46758;DHT22;32509;47.750;-3.396;2023-08-24T11:48:02;23.80;99.90
46758;DHT22;32509;47.750;-3.396;2023-08-24T11:50:30;23.70;99.90
46758;DHT22;32509;47.750;-3.396;2023-08-24T11:52:56;23.70;99.90
46758;DHT22;32509;47.750;-3.396;2023-08-24T11:55:23;23.70;99.90
46758;DHT22;32509;47.750;-3.396;2023-08-24T11:57:50;23.60;99.90
46758;DHT22;32509;47.750;-3.396;2023-08-24T12:00:18;23.70;99.90
46758;DHT22;32509;47.750;-3.396;2023-08-24T12:02:45;23.70;99.90
46758;DHT22;32509;47.750;-3.396;2023-08-24T12:07:47;23.60;99.90
46758;DHT22;32509;47.750;-3.396;2023-08-24T12:10:13;23.70;99.90
46758;DHT22;32509;47.750;-3.396;2023-08-24T12:12:39;23.60;99.90
46758;DHT22;32509;47.750;-3.396;2023-08-24T12:15:05;23.50;99.90
46758;DHT22;32509;47.750;-3.396;2023-08-24T12:17:42;23.50;99.90
46758;DHT22;32509;47.750;-3.396;2023-08-24T12:20:20;23.50;99.90
46758;DHT22;32509;47.750;-3.396;2023-08-24T12:22:54;23.60;99.90
46758;DHT22;32509;47.750;-3.396;2023-08-24T12:25:22;23.60;99.90
46758;DHT22;32509;47.750;-3.396;2023-08-24T12:27:52;23.50;99.90
46758;DHT22;32509;47.750;-3.396;2023-08-24T12:30:19;23.60;99.90
46758;DHT22;32509;47.750;-3.396;2023-08-24T12:32:48;23.70;99.90
46758;DHT22;32509;47.750;-3.396;2023-08-24T12:35:16;23.70;99.90
46758;DHT22;32509;47.750;-3.396;2023-08-24T12:37:42;23.70;99.90
46758;DHT22;32509;47.750;-3.396;2023-08-24T12:40:08;23.70;99.90
46758;DHT22;32509;47.750;-3.396;2023-08-24T12:42:34;23.70;99.90
46758;DHT22;32509;47.750;-3.396;2023-08-24T12:45:00;23.80;99.90
46758;DHT22;32509;47.750;-3.396;2023-08-24T12:47:26;23.80;99.90
46758;DHT22;32509;47.750;-3.396;2023-08-24T12:49:52;23.80;99.90
46758;DHT22;32509;47.750;-3.396;2023-08-24T12:52:21;23.80;99.90
46758;DHT22;32509;47.750;-3.396;2023-08-24T12:54:47;23.80;99.90
46758;DHT22;32509;47.750;-3.396;2023-08-24T12:57:13;23.80;99.90
46758;DHT22;32509;47.750;-3.396;2023-08-24T12:59:39;23.80;99.90
46758;DHT22;32509;47.750;-3.396;2023-08-24T13:02:05;23.80;99.90
46758;DHT22;32509;47.750;-3.396;2023-08-24T13:04:31;23.80;99.90
46758;DHT22;32509;47.750;-3.396;2023-08-24T13:06:59;23.90;99.90
46758;DHT22;32509;47.750;-3.396;2023-08-24T13:09:25;23.90;99.90
46758;DHT22;32509;47.750;-3.396;2023-08-24T13:11:51;23.80;99.90
46758;DHT22;32509;47.750;-3.396;2023-08-24T13:14:17;23.80;99.90
46758;DHT22;32509;47.750;-3.396;2023-08-24T13:16:44;23.80;99.90
46758;DHT22;32509;47.750;-3.396;2023-08-24T13:19:10;23.70;99.90
46758;DHT22;32509;47.750;-3.396;2023-08-24T13:21:37;23.70;99.90
46758;DHT22;32509;47.750;-3.396;2023-08-24T13:24:03;23.60;99.90
46758;DHT22;32509;47.750;-3.396;2023-08-24T13:26:29;23.60;99.90
46758;DHT22;32509;47.750;-3.396;2023-08-24T13:28:56;23.60;99.90
46758;DHT22;32509;47.750;-3.396;2023-08-24T13:31:22;23.60;99.90
46758;DHT22;32509;47.750;-3.396;2023-08-24T13:33:48;23.60;99.90
46758;DHT22;32509;47.750;-3.396;2023-08-24T13:36:14;23.60;99.90
46758;DHT22;32509;47.750;-3.396;2023-08-24T13:38:39;23.70;99.90
46758;DHT22;32509;47.750;-3.396;2023-08-24T13:41:05;23.70;99.90
46758;DHT22;32509;47.750;-3.396;2023-08-24T13:43:31;23.60;99.90
46758;DHT22;32509;47.750;-3.396;2023-08-24T13:45:58;23.60;99.90
46758;DHT22;32509;47.750;-3.396;2023-08-24T13:48:24;23.60;99.90
46758;DHT22;32509;47.750;-3.396;2023-08-24T13:50:51;23.50;99.90
46758;DHT22;32509;47.750;-3.396;2023-08-24T13:53:18;23.40;99.90
46758;DHT22;32509;47.750;-3.396;2023-08-24T13:55:44;23.30;99.90
46758;DHT22;32509;47.750;-3.396;2023-08-24T13:58:09;23.30;99.90
46758;DHT22;32509;47.750;-3.396;2023-08-24T14:00:36;23.30;99.90
46758;DHT22;32509;47.750;-3.396;2023-08-24T14:03:03;23.20;99.90
46758;DHT22;32509;47.750;-3.396;2023-08-24T14:05:28;23.20;99.90
46758;DHT22;32509;47.750;-3.396;2023-08-24T14:07:54;23.20;99.90
46758;DHT22;32509;47.750;-3.396;2023-08-24T14:10:20;23.20;99.90
46758;DHT22;32509;47.750;-3.396;2023-08-24T14:12:46;23.30;99.90
46758;DHT22;32509;47.750;-3.396;2023-08-24T14:15:12;23.30;99.90
46758;DHT22;32509;47.750;-3.396;2023-08-24T14:17:37;23.30;99.90
46758;DHT22;32509;47.750;-3.396;2023-08-24T14:20:04;23.30;99.90
46758;DHT22;32509;47.750;-3.396;2023-08-24T14:22:29;23.20;99.90
46758;DHT22;32509;47.750;-3.396;2023-08-24T14:25:03;23.10;99.90
46758;DHT22;32509;47.750;-3.396;2023-08-24T14:27:29;23.10;99.90
46758;DHT22;32509;47.750;-3.396;2023-08-24T14:29:55;23.20;99.90
46758;DHT22;32509;47.750;-3.396;2023-08-24T14:32:21;23.20;99.90
46758;DHT22;32509;47.750;-3.396;2023-08-24T14:34:48;23.20;99.90
46758;DHT22;32509;47.750;-3.396;2023-08-24T14:37:14;23.30;99.90
46758;DHT22;32509;47.750;-3.396;2023-08-24T14:39:39;23.30;99.90
46758;DHT22;32509;47.750;-3.396;2023-08-24T14:42:05;23.30;99.90
46758;DHT22;32509;47.750;-3.396;2023-08-24T14:44:31;23.40;99.90
46758;DHT22;32509;47.750;-3.396;2023-08-24T14:46:57;23.40;99.90
46758;DHT22;32509;47.750;-3.396;2023-08-24T14:49:23;23.40;99.90
46758;DHT22;32509;47.750;-3.396;2023-08-24T14:51:48;23.40;99.90
46758;DHT22;32509;47.750;-3.396;2023-08-24T14:54:14;23.50;99.90
46758;DHT22;32509;47.750;-3.396;2023-08-24T14:56:40;23.40;99.90
46758;DHT22;32509;47.750;-3.396;2023-08-24T14:59:06;23.40;99.90
46758;DHT22;32509;47.750;-3.396;2023-08-24T15:01:32;23.40;99.90
46758;DHT22;32509;47.750;-3.396;2023-08-24T15:03:58;23.40;99.90
46758;DHT22;32509;47.750;-3.396;2023-08-24T15:06:23;23.50;99.90
46758;DHT22;32509;47.750;-3.396;2023-08-24T15:08:49;23.50;99.90
46758;DHT22;32509;47.750;-3.396;2023-08-24T15:11:15;23.50;99.90
46758;DHT22;32509;47.750;-3.396;2023-08-24T15:13:43;23.60;99.90
46758;DHT22;32509;47.750;-3.396;2023-08-24T15:16:09;23.60;99.90
46758;DHT22;32509;47.750;-3.396;2023-08-24T15:18:35;23.60;99.90
46758;DHT22;32509;47.750;-3.396;2023-08-24T15:21:02;23.60;99.90
46758;DHT22;32509;47.750;-3.396;2023-08-24T15:23:30;23.60;99.90
46758;DHT22;32509;47.750;-3.396;2023-08-24T15:26:01;23.60;99.90
46758;DHT22;32509;47.750;-3.396;2023-08-24T15:28:35;23.60;99.90
46758;DHT22;32509;47.750;-3.396;2023-08-24T15:31:01;23.60;99.90
46758;DHT22;32509;47.750;-3.396;2023-08-24T15:33:27;23.70;99.90